createdAt,value
2022-12-18T00:02:02.700Z,-6.46
2022-12-18T00:07:04.596Z,-6.43
2022-12-18T00:17:08.645Z,-6.27
2022-12-18T00:22:10.014Z,-6.21
2022-12-18T00:27:11.135Z,-6.16
2022-12-18T00:32:12.965Z,-6.19
2022-12-18T00:37:19.824Z,-6.17
2022-12-18T00:42:15.947Z,-6.17
2022-12-18T00:47:17.654Z,-6.19
2022-12-18T00:52:18.782Z,-6.15
2022-12-18T00:57:20.608Z,-6.27
2022-12-18T01:02:22.165Z,-6.32
2022-12-18T01:07:23.948Z,-6.29
2022-12-18T01:12:25.419Z,-6.19
2022-12-18T01:17:26.755Z,-6.16
2022-12-18T01:22:28.861Z,-6.11
2022-12-18T01:27:30.901Z,-6.17
2022-12-18T01:32:32.250Z,-6.18
2022-12-18T01:37:34.317Z,-6.2
2022-12-18T01:42:36.167Z,-6.2
2022-12-18T01:47:38.187Z,-6.2
2022-12-18T01:52:39.608Z,-6.14
2022-12-18T01:57:41.683Z,-6.23
2022-12-18T02:02:43.128Z,-6.31
2022-12-18T02:07:44.819Z,-6.39
2022-12-18T02:12:46.207Z,-6.46
2022-12-18T02:17:47.899Z,-6.37
2022-12-18T02:22:49.731Z,-6.32
2022-12-18T02:27:52.086Z,-6.17
2022-12-18T02:32:54.039Z,-6.18
2022-12-18T02:37:55.844Z,-6.12
2022-12-18T02:42:57.989Z,-6.04
2022-12-18T02:47:59.671Z,-5.99
2022-12-18T02:53:01.501Z,-5.97
2022-12-18T02:58:03.173Z,-6.02
2022-12-18T03:03:04.203Z,-6.02
2022-12-18T03:08:05.651Z,-5.99
2022-12-18T03:13:07.008Z,-5.9
2022-12-18T03:18:08.483Z,-6.08
2022-12-18T03:23:10.605Z,-6.13
2022-12-18T03:28:12.780Z,-6.3
2022-12-18T03:33:14.405Z,-6.38
2022-12-18T03:38:16.337Z,-6.34
2022-12-18T03:43:18.088Z,-6.24
2022-12-18T03:48:19.701Z,-6.14
2022-12-18T03:53:20.908Z,-5.99
2022-12-18T03:58:22.978Z,-5.88
2022-12-18T04:03:26.537Z,-5.86
2022-12-18T04:08:25.560Z,-5.9
2022-12-18T04:13:27.338Z,-5.92
2022-12-18T04:18:28.673Z,-5.85
2022-12-18T04:23:30.154Z,-5.75
2022-12-18T04:28:31.428Z,-5.86
2022-12-18T04:33:32.755Z,-5.92
2022-12-18T04:38:34.942Z,-6
2022-12-18T04:43:36.771Z,-5.92
2022-12-18T04:48:37.635Z,-5.84
2022-12-18T04:53:39.169Z,-5.87
2022-12-18T04:58:40.844Z,-5.83
2022-12-18T05:03:42.472Z,-5.84
2022-12-18T05:08:44.216Z,-5.77
2022-12-18T05:13:46.143Z,-5.74
2022-12-18T05:18:48.056Z,-5.74
2022-12-18T05:23:49.792Z,-5.81
2022-12-18T05:28:51.687Z,-5.74
2022-12-18T05:33:53.194Z,-5.68
2022-12-18T05:38:54.886Z,-5.57
2022-12-18T05:43:56.167Z,-5.49
2022-12-18T05:48:57.883Z,-5.42
2022-12-18T05:53:59.169Z,-5.48
2022-12-18T05:59:01.080Z,-5.52
2022-12-18T06:04:02.342Z,-5.51
2022-12-18T06:09:03.724Z,-5.51
2022-12-18T06:14:11.296Z,-5.49
2022-12-18T06:19:12.877Z,-5.52
2022-12-18T06:24:14.886Z,-5.61
2022-12-18T06:29:16.976Z,-5.73
2022-12-18T06:34:18.220Z,-5.81
2022-12-18T06:39:19.603Z,-5.91
2022-12-18T06:44:21.221Z,-5.86
2022-12-18T06:49:26.166Z,-5.86
2022-12-18T06:54:24.629Z,-5.73
2022-12-18T06:59:26.445Z,-5.68
2022-12-18T07:04:27.916Z,-5.62
2022-12-18T07:09:29.139Z,-5.57
2022-12-18T07:14:31.126Z,-5.57
2022-12-18T07:19:32.771Z,-5.53
2022-12-18T07:24:34.735Z,-5.55
2022-12-18T07:29:36.577Z,-5.56
2022-12-18T07:34:37.950Z,-5.58
2022-12-18T07:39:39.126Z,-5.53
2022-12-18T07:44:40.474Z,-5.53
2022-12-18T07:49:42.023Z,-5.58
2022-12-18T07:54:43.598Z,-5.75
2022-12-18T07:59:45.599Z,-5.89
2022-12-18T08:04:47.647Z,-5.83
2022-12-18T08:09:49.386Z,-5.72
2022-12-18T08:14:50.750Z,-5.71
2022-12-18T08:19:52.364Z,-5.94
2022-12-18T08:24:54.064Z,-5.91
2022-12-18T08:29:55.451Z,-5.81
2022-12-18T08:34:56.632Z,-5.72
2022-12-18T08:39:57.949Z,-5.65
2022-12-18T08:44:59.316Z,-5.57
2022-12-18T08:50:01.080Z,-5.49
2022-12-18T08:55:02.395Z,-5.47
2022-12-18T09:00:04.705Z,-5.4
2022-12-18T09:05:06.748Z,-5.43
2022-12-18T09:10:08.181Z,-5.38
2022-12-18T09:15:10.255Z,-5.29
2022-12-18T09:20:11.839Z,-5.23
2022-12-18T09:25:13.278Z,-5.18
2022-12-18T09:30:15.353Z,-5.17
2022-12-18T09:35:17.168Z,-5.33
2022-12-18T09:40:18.836Z,-5.45
2022-12-18T09:45:20.209Z,-5.52
2022-12-18T09:50:22.253Z,-5.67
2022-12-18T09:55:23.885Z,-5.53
2022-12-18T10:00:30.769Z,-5.42
2022-12-18T10:05:27.441Z,-5.41
2022-12-18T10:10:29.259Z,-5.59
2022-12-18T10:15:30.579Z,-5.76
2022-12-18T10:20:32.402Z,-5.72
2022-12-18T10:25:34.295Z,-5.71
2022-12-18T10:30:35.889Z,-5.73
2022-12-18T10:35:37.592Z,-5.68
2022-12-18T10:40:38.839Z,-5.48
2022-12-18T10:45:40.483Z,-5.53
2022-12-18T10:51:10.110Z,-5.48
2022-12-18T10:55:43.300Z,-5.46
2022-12-18T11:20:58.627Z,-5.25
2022-12-18T11:35:56.470Z,-5.19
2022-12-18T11:46:00.112Z,-5.07
2022-12-18T11:51:01.451Z,-4.98
2022-12-18T12:01:04.957Z,-5.1
2022-12-18T12:06:06.189Z,-5.02
2022-12-18T12:11:07.545Z,-4.92
2022-12-18T12:16:09.589Z,-4.78
2022-12-18T12:21:10.903Z,-4.85
2022-12-18T12:26:12.866Z,-4.98
2022-12-18T12:31:14.075Z,-5.11
2022-12-18T12:36:15.333Z,-5.02
2022-12-18T12:41:17.531Z,-4.92
2022-12-18T12:46:19.621Z,-4.88
2022-12-18T12:51:20.884Z,-4.78
2022-12-18T12:56:22.995Z,-4.67
2022-12-18T13:01:24.803Z,-4.51
2022-12-18T13:06:25.824Z,-4.4
2022-12-18T13:11:27.439Z,-4.38
2022-12-18T13:16:29.305Z,-4.51
2022-12-18T13:21:30.931Z,-4.44
2022-12-18T13:26:32.423Z,-4.46
2022-12-18T13:31:33.938Z,-4.44
2022-12-18T13:36:36.223Z,-4.48
2022-12-18T13:41:37.260Z,-4.52
2022-12-18T13:46:39.145Z,-4.57
2022-12-18T13:51:40.815Z,-4.58
2022-12-18T13:56:42.482Z,-4.51
2022-12-18T14:01:43.758Z,-4.65
2022-12-18T14:06:45.071Z,-4.67
2022-12-18T14:11:46.354Z,-4.69
2022-12-18T14:16:48.188Z,-4.64
2022-12-18T14:21:50.281Z,-4.85
2022-12-18T14:26:51.602Z,-4.94
2022-12-18T14:31:53.464Z,-4.85
2022-12-18T14:36:54.789Z,-4.89
2022-12-18T14:41:56.578Z,-4.87
2022-12-18T14:46:58.715Z,-4.88
2022-12-18T14:51:59.929Z,-4.96
2022-12-18T14:57:02.044Z,-4.98
2022-12-18T15:02:03.583Z,-5.14
2022-12-18T15:07:04.578Z,-5.1
2022-12-18T15:12:06.265Z,-5.18
2022-12-18T15:17:08.290Z,-5.22
2022-12-18T15:22:10.355Z,-5.17
2022-12-18T15:27:11.750Z,-5.13
2022-12-18T15:32:13.152Z,-5.13
2022-12-18T15:37:14.638Z,-5.1
2022-12-18T15:42:16.570Z,-5.07
2022-12-18T15:47:17.957Z,-5.06
2022-12-18T15:52:19.358Z,-5.07
2022-12-18T15:57:21.269Z,-5.04
2022-12-18T16:02:22.763Z,-4.96
2022-12-18T16:07:24.641Z,-4.89
2022-12-18T16:12:26.299Z,-4.91
2022-12-18T16:17:28.128Z,-4.94
2022-12-18T16:22:30.223Z,-4.98
2022-12-18T16:27:32.526Z,-5.01
2022-12-18T16:32:33.921Z,-5.01
2022-12-18T16:37:35.935Z,-5.02
2022-12-18T16:42:37.962Z,-5.01
2022-12-18T16:47:39.585Z,-5.18
2022-12-18T16:52:41.652Z,-5.24
2022-12-18T16:57:43.729Z,-5.21
2022-12-18T17:02:45.712Z,-5.19
2022-12-18T17:07:47.026Z,-5.15
2022-12-18T17:12:49.029Z,-5.09
2022-12-18T17:17:50.144Z,-5.13
2022-12-18T17:22:51.719Z,-5.16
2022-12-18T17:27:53.873Z,-5.19
2022-12-18T17:32:55.331Z,-5.38
2022-12-18T17:37:56.676Z,-5.4
2022-12-18T17:42:58.376Z,-5.47
2022-12-18T17:48:00.266Z,-5.75
2022-12-18T17:53:02.279Z,-5.73
2022-12-18T17:58:04.561Z,-5.67
2022-12-18T18:03:06.013Z,-5.71
2022-12-18T18:08:07.833Z,-5.68
2022-12-18T18:13:09.955Z,-5.76
2022-12-18T18:18:11.608Z,-5.82
2022-12-18T18:23:13.034Z,-5.76
2022-12-18T18:28:14.856Z,-5.85
2022-12-18T18:33:16.399Z,-5.83
2022-12-18T18:38:18.194Z,-5.78
2022-12-18T18:43:19.695Z,-5.83
2022-12-18T18:48:21.139Z,-5.91
2022-12-18T18:53:22.678Z,-5.97
2022-12-18T18:58:24.463Z,-6.07
2022-12-18T19:03:25.576Z,-6.19
2022-12-18T19:08:26.780Z,-6.16
2022-12-18T19:13:28.186Z,-6.11
2022-12-18T19:18:29.771Z,-6.03
2022-12-18T19:23:30.979Z,-5.96
2022-12-18T19:28:32.755Z,-5.93
2022-12-18T19:33:42.696Z,-5.91
2022-12-18T19:38:35.501Z,-6.02
2022-12-18T19:43:37.563Z,-6.37
2022-12-18T19:48:39.072Z,-6.3
2022-12-18T19:53:40.606Z,-6.22
2022-12-18T19:58:43.099Z,-6.13
2022-12-18T20:03:44.884Z,-6.08
2022-12-18T20:08:45.565Z,-6.01
2022-12-18T20:13:47.589Z,-5.96
2022-12-18T20:18:49.066Z,-5.96
2022-12-18T20:23:51.175Z,-6.04
2022-12-18T20:28:53.201Z,-6.09
2022-12-18T20:33:55.736Z,-6.18
2022-12-18T20:38:57.388Z,-6.13
2022-12-18T20:43:58.310Z,-6.03
2022-12-18T20:48:59.650Z,-5.96
2022-12-18T20:54:00.824Z,-6.06
2022-12-18T20:59:02.487Z,-6.01
2022-12-18T21:04:04.143Z,-5.99
2022-12-18T21:09:05.390Z,-6.08
2022-12-18T21:14:07.566Z,-6.19
2022-12-18T21:19:09.181Z,-6.14
2022-12-18T21:24:10.980Z,-6.05
2022-12-18T21:29:13.074Z,-5.99
2022-12-18T21:34:14.463Z,-5.95
2022-12-18T21:39:16.028Z,-5.93
2022-12-18T21:44:17.425Z,-5.87
2022-12-18T21:49:18.954Z,-5.83
2022-12-18T21:54:20.344Z,-5.84
2022-12-18T21:59:21.930Z,-6.02
2022-12-18T22:04:23.747Z,-5.98
2022-12-18T22:09:25.209Z,-5.91
2022-12-18T22:14:27.345Z,-6.11
2022-12-18T22:19:28.996Z,-6.16
2022-12-18T22:24:30.351Z,-6.11
2022-12-18T22:29:31.583Z,-6.03
2022-12-18T22:34:36.382Z,-5.99
2022-12-18T22:39:35.411Z,-5.98
2022-12-18T22:44:37.493Z,-6
2022-12-18T22:49:38.660Z,-6
2022-12-18T22:54:40.363Z,-5.96
2022-12-18T22:54:46.678Z,-5.95
2022-12-18T22:59:48.183Z,-5.93
2022-12-18T23:04:49.578Z,-5.88
2022-12-18T23:09:51.264Z,-5.87
2022-12-18T23:14:52.736Z,-5.87
2022-12-18T23:19:54.777Z,-5.86
2022-12-18T23:24:56.120Z,-5.86
2022-12-18T23:29:57.826Z,-5.86
2022-12-18T23:34:59.232Z,-5.81
2022-12-18T23:40:01.241Z,-5.73
2022-12-18T23:45:03.843Z,-5.73
2022-12-18T23:50:04.572Z,-5.83
2022-12-18T23:55:06.690Z,-5.78
